createdAt,value
2022-11-24T00:00:04.089Z,6.68
2022-11-24T00:02:31.614Z,6.13
2022-11-24T00:04:58.970Z,6.30
2022-11-24T00:07:26.320Z,7.43
2022-11-24T00:09:53.916Z,7.53
2022-11-24T00:12:23.418Z,7.95
2022-11-24T00:14:50.758Z,7.53
2022-11-24T00:17:18.006Z,6.80
2022-11-24T00:19:45.353Z,6.53
2022-11-24T00:22:12.601Z,6.88
2022-11-24T00:24:39.863Z,6.90
2022-11-24T00:27:07.175Z,7.05
2022-11-24T00:29:34.465Z,6.38
2022-11-24T00:32:06.022Z,6.28
2022-11-24T00:34:34.117Z,6.22
2022-11-24T00:37:01.567Z,6.75
2022-11-24T00:39:28.870Z,6.35
2022-11-24T00:41:56.237Z,6.18
2022-11-24T00:44:23.479Z,7.53
2022-11-24T00:46:50.865Z,6.82
2022-11-24T00:49:18.203Z,7.30
2022-11-24T00:51:45.934Z,6.68
2022-11-24T00:54:13.257Z,6.65
2022-11-24T00:56:40.546Z,6.18
2022-11-24T00:59:07.873Z,6.60
2022-11-24T01:01:35.320Z,7.35
2022-11-24T01:04:03.070Z,6.80
2022-11-24T01:06:31.100Z,6.65
2022-11-24T01:08:58.458Z,6.65
2022-11-24T01:11:27.402Z,7.13
2022-11-24T01:13:57.509Z,6.32
2022-11-24T01:16:30.016Z,7.82
2022-11-24T01:18:57.326Z,7.63
2022-11-24T01:21:24.649Z,7.13
2022-11-24T01:23:52.037Z,7.50
2022-11-24T01:26:22.765Z,6.47
2022-11-24T01:28:57.210Z,7.75
2022-11-24T01:31:24.891Z,7.10
2022-11-24T01:33:52.235Z,7.30
2022-11-24T01:36:19.746Z,6.63
2022-11-24T01:38:47.038Z,6.60
2022-11-24T01:41:15.480Z,7.00
2022-11-24T01:43:43.491Z,6.57
2022-11-24T01:46:25.313Z,7.38
2022-11-24T01:48:57.074Z,6.72
2022-11-24T01:51:25.991Z,6.47
2022-11-24T01:53:55.868Z,7.20
2022-11-24T01:56:23.506Z,6.63
2022-11-24T01:58:51.695Z,6.72
2022-11-24T02:01:19.305Z,6.93
2022-11-24T02:03:47.487Z,7.10
2022-11-24T02:06:17.685Z,7.00
2022-11-24T02:08:50.783Z,7.70
2022-11-24T02:11:18.690Z,7.35
2022-11-24T02:13:46.456Z,6.85
2022-11-24T02:16:13.860Z,7.28
2022-11-24T02:18:42.857Z,6.97
2022-11-24T02:21:11.977Z,7.07
2022-11-24T02:23:51.326Z,7.68
2022-11-24T02:26:54.203Z,6.47
2022-11-24T02:29:21.646Z,7.70
2022-11-24T02:31:51.936Z,7.18
2022-11-24T02:34:19.195Z,8.05
2022-11-24T02:36:46.486Z,7.38
2022-11-24T02:39:14.616Z,7.22
2022-11-24T02:41:47.414Z,7.82
2022-11-24T02:44:16.351Z,6.97
2022-11-24T02:46:43.716Z,7.90
2022-11-24T02:49:11.117Z,8.48
2022-11-24T02:51:38.423Z,8.38
2022-11-24T02:54:05.715Z,8.27
2022-11-24T02:56:35.271Z,9.30
2022-11-24T02:59:02.548Z,9.35
2022-11-24T03:01:29.858Z,9.32
2022-11-24T03:03:57.186Z,10.88
2022-11-24T03:06:24.432Z,9.15
2022-11-24T03:08:51.710Z,9.07
2022-11-24T03:11:18.986Z,9.35
2022-11-24T03:13:46.274Z,9.18
2022-11-24T03:16:13.625Z,8.95
2022-11-24T03:18:40.938Z,9.13
2022-11-24T03:21:08.259Z,9.75
2022-11-24T03:23:35.520Z,9.35
2022-11-24T03:26:13.546Z,10.00
2022-11-24T03:28:41.496Z,9.70
2022-11-24T03:31:09.414Z,10.05
2022-11-24T03:33:37.246Z,11.00
2022-11-24T03:36:05.382Z,29.58
2022-11-24T03:38:32.685Z,12.48
2022-11-24T03:41:00.206Z,11.50
2022-11-24T03:43:27.462Z,11.27
2022-11-24T03:45:54.799Z,11.57
2022-11-24T03:48:22.312Z,10.65
2022-11-24T03:50:56.332Z,11.23
2022-11-24T03:53:24.488Z,11.52
2022-11-24T03:55:51.782Z,11.63
2022-11-24T03:58:19.651Z,11.48
2022-11-24T04:00:47.422Z,12.40
2022-11-24T04:03:14.771Z,11.95
2022-11-24T04:05:42.130Z,11.75
2022-11-24T04:08:09.702Z,11.18
2022-11-24T04:10:37.927Z,11.85
2022-11-24T04:13:06.414Z,13.18
2022-11-24T04:15:33.711Z,12.55
2022-11-24T04:18:00.981Z,13.32
2022-11-24T04:20:28.333Z,12.63
2022-11-24T04:22:55.637Z,12.10
2022-11-24T04:25:23.019Z,12.18
2022-11-24T04:27:54.476Z,11.63
2022-11-24T04:30:22.308Z,12.50
2022-11-24T04:32:49.677Z,12.55
2022-11-24T04:35:17.004Z,12.05
2022-11-24T04:37:44.581Z,13.07
2022-11-24T04:40:12.582Z,12.27
2022-11-24T04:42:39.900Z,12.27
2022-11-24T04:45:07.835Z,12.23
2022-11-24T04:47:35.539Z,13.50
2022-11-24T04:50:04.697Z,12.88
2022-11-24T04:52:32.454Z,12.52
2022-11-24T04:54:59.715Z,13.88
2022-11-24T04:57:27.770Z,12.88
2022-11-24T04:59:55.623Z,12.25
2022-11-24T05:02:23.066Z,12.38
2022-11-24T05:04:50.434Z,12.63
2022-11-24T05:07:19.532Z,12.07
2022-11-24T05:10:06.149Z,11.73
2022-11-24T05:12:33.703Z,10.63
2022-11-24T05:15:01.794Z,11.88
2022-11-24T05:17:29.830Z,12.15
2022-11-24T05:19:57.638Z,11.95
2022-11-24T05:22:24.895Z,11.93
2022-11-24T05:24:52.354Z,12.55
2022-11-24T05:27:19.667Z,12.98
2022-11-24T05:29:46.927Z,14.02
2022-11-24T05:32:14.184Z,14.13
2022-11-24T05:34:41.434Z,14.07
2022-11-24T05:37:09.039Z,12.95
2022-11-24T05:39:37.147Z,12.18
2022-11-24T05:42:25.473Z,12.38
2022-11-24T05:44:52.972Z,12.38
2022-11-24T05:47:20.492Z,12.25
2022-11-24T05:49:47.808Z,12.15
2022-11-24T05:52:15.084Z,13.00
2022-11-24T05:54:42.331Z,12.55
2022-11-24T05:57:09.830Z,12.18
2022-11-24T05:59:37.102Z,12.85
2022-11-24T06:02:04.505Z,12.43
2022-11-24T06:04:32.498Z,11.98
2022-11-24T06:07:00.112Z,13.40
2022-11-24T06:09:27.352Z,12.88
2022-11-24T06:11:54.660Z,13.32
2022-11-24T06:14:24.390Z,13.32
2022-11-24T06:16:51.707Z,12.88
2022-11-24T06:19:18.985Z,13.13
2022-11-24T06:21:46.241Z,12.77
2022-11-24T06:24:14.791Z,13.30
2022-11-24T06:26:42.382Z,13.15
2022-11-24T06:29:09.857Z,12.48
2022-11-24T06:31:37.168Z,13.57
2022-11-24T06:34:07.861Z,12.65
2022-11-24T06:36:35.215Z,13.15
2022-11-24T06:39:02.903Z,14.63
2022-11-24T06:41:30.265Z,13.07
2022-11-24T06:43:57.698Z,12.63
2022-11-24T06:46:25.077Z,12.95
2022-11-24T06:48:53.026Z,14.57
2022-11-24T06:51:20.584Z,14.77
2022-11-24T06:53:47.847Z,14.52
2022-11-24T06:56:20.865Z,14.18
2022-11-24T06:58:48.934Z,13.48
2022-11-24T07:01:17.256Z,13.32
2022-11-24T07:03:44.938Z,13.07
2022-11-24T07:06:12.159Z,13.88
2022-11-24T07:08:39.381Z,13.13
2022-11-24T07:11:07.694Z,13.65
2022-11-24T07:13:35.004Z,13.32
2022-11-24T07:16:11.126Z,14.63
2022-11-24T07:18:38.385Z,13.40
2022-11-24T07:21:05.973Z,13.65
2022-11-24T07:23:33.268Z,13.77
2022-11-24T07:26:06.573Z,13.43
2022-11-24T07:28:34.436Z,13.13
2022-11-24T07:31:06.171Z,13.32
2022-11-24T07:33:33.508Z,13.13
2022-11-24T07:36:01.319Z,12.70
2022-11-24T07:38:29.515Z,11.85
2022-11-24T07:40:59.979Z,12.57
2022-11-24T07:43:27.297Z,12.10
2022-11-24T07:45:54.739Z,11.93
2022-11-24T07:48:22.007Z,13.10
2022-11-24T07:50:55.330Z,11.60
2022-11-24T07:53:23.184Z,11.73
2022-11-24T07:55:56.849Z,12.35
2022-11-24T07:58:27.577Z,11.88
2022-11-24T08:00:58.045Z,11.32
2022-11-24T08:03:25.545Z,11.23
2022-11-24T08:11:18.167Z,11.88
2022-11-24T08:13:48.980Z,11.48
2022-11-24T08:16:17.512Z,11.30
2022-11-24T08:18:45.073Z,11.10
2022-11-24T08:21:14.064Z,10.25
2022-11-24T08:23:41.883Z,10.40
2022-11-24T08:26:10.972Z,10.43
2022-11-24T08:28:38.330Z,9.30
2022-11-24T08:31:09.972Z,10.35
2022-11-24T08:33:37.513Z,10.93
2022-11-24T08:36:08.822Z,11.43
2022-11-24T08:38:36.141Z,10.52
2022-11-24T08:41:04.772Z,10.25
2022-11-24T08:43:32.131Z,11.30
2022-11-24T08:46:03.301Z,10.70
2022-11-24T08:48:30.970Z,10.45
2022-11-24T08:50:58.858Z,11.00
2022-11-24T08:53:26.411Z,9.88
2022-11-24T08:55:53.667Z,9.57
2022-11-24T08:58:20.981Z,10.15
2022-11-24T09:00:48.218Z,9.90
2022-11-24T09:03:15.552Z,9.90
2022-11-24T09:05:51.834Z,10.15
2022-11-24T09:08:19.674Z,10.18
2022-11-24T09:10:46.988Z,10.50
2022-11-24T09:13:14.280Z,9.52
2022-11-24T09:15:41.568Z,10.60
2022-11-24T09:18:08.865Z,10.38
2022-11-24T09:20:36.096Z,10.48
2022-11-24T09:23:03.373Z,10.30
2022-11-24T09:25:30.649Z,10.35
2022-11-24T09:27:59.954Z,10.75
2022-11-24T09:30:27.450Z,10.60
2022-11-24T09:32:56.153Z,9.95
2022-11-24T09:35:23.468Z,10.07
2022-11-24T09:37:51.346Z,10.70
2022-11-24T09:40:18.855Z,9.50
2022-11-24T09:43:03.925Z,10.40
2022-11-24T09:46:03.771Z,9.55
2022-11-24T09:48:33.107Z,9.63
2022-11-24T09:51:02.787Z,9.70
2022-11-24T09:53:30.303Z,10.02
2022-11-24T09:55:59.662Z,9.80
2022-11-24T09:58:45.841Z,10.35
2022-11-24T10:01:17.537Z,10.68
2022-11-24T10:03:46.403Z,10.27
2022-11-24T10:06:34.911Z,10.45
2022-11-24T10:09:11.279Z,10.68
2022-11-24T10:11:44.724Z,10.55
2022-11-24T10:14:18.140Z,10.70
2022-11-24T10:17:02.470Z,10.65
2022-11-24T10:19:37.095Z,10.35
2022-11-24T10:22:16.712Z,9.73
2022-11-24T10:25:02.513Z,10.40
2022-11-24T10:27:34.412Z,9.90
2022-11-24T10:30:02.295Z,9.38
2022-11-24T10:32:41.713Z,10.05
2022-11-24T10:35:22.751Z,9.93
2022-11-24T10:43:23.727Z,8.88
2022-11-24T10:45:51.198Z,9.20
2022-11-24T10:48:26.726Z,10.32
2022-11-24T10:50:55.061Z,9.75
2022-11-24T10:53:27.626Z,9.85
2022-11-24T10:55:57.718Z,9.45
2022-11-24T10:58:32.960Z,10.38
2022-11-24T11:01:13.596Z,9.30
2022-11-24T11:04:10.172Z,10.30
2022-11-24T11:06:38.182Z,10.82
2022-11-24T11:09:08.216Z,9.50
2022-11-24T11:11:40.114Z,9.97
2022-11-24T11:14:08.373Z,9.38
2022-11-24T11:16:37.728Z,10.00
2022-11-24T11:19:26.024Z,10.18
2022-11-24T11:22:04.493Z,8.68
2022-11-24T11:24:31.780Z,10.07
2022-11-24T11:27:02.936Z,9.93
2022-11-24T11:35:12.620Z,8.95
2022-11-24T11:37:39.916Z,8.48
2022-11-24T11:40:15.545Z,9.23
2022-11-24T11:43:01.952Z,9.15
2022-11-24T11:45:34.952Z,9.20
2022-11-24T11:48:02.477Z,8.65
2022-11-24T11:50:47.424Z,8.90
2022-11-24T11:53:25.735Z,9.77
2022-11-24T11:56:11.874Z,10.87
2022-11-24T11:58:39.187Z,9.07
2022-11-24T12:01:15.549Z,9.32
2022-11-24T12:03:58.341Z,8.13
2022-11-24T12:06:41.479Z,8.40
2022-11-24T12:09:21.511Z,8.95
2022-11-24T12:11:48.768Z,9.37
2022-11-24T12:14:16.041Z,8.48
2022-11-24T12:16:43.326Z,8.45
2022-11-24T12:19:24.570Z,8.57
2022-11-24T12:21:51.813Z,8.90
2022-11-24T12:24:19.259Z,9.27
2022-11-24T12:26:58.646Z,8.98
2022-11-24T12:29:37.953Z,10.13
2022-11-24T12:32:22.500Z,10.25
2022-11-24T12:34:50.317Z,10.05
2022-11-24T12:37:35.490Z,9.70
2022-11-24T12:40:02.751Z,10.70
2022-11-24T12:42:35.921Z,8.90
2022-11-24T12:45:13.760Z,9.68
2022-11-24T12:47:52.977Z,9.20
2022-11-24T12:50:21.439Z,8.93
2022-11-24T12:53:01.000Z,7.95
2022-11-24T12:55:29.619Z,8.65
2022-11-24T12:58:09.460Z,9.18
2022-11-24T13:00:53.491Z,8.40
2022-11-24T13:03:33.593Z,8.35
2022-11-24T13:06:10.831Z,8.00
2022-11-24T13:08:38.388Z,8.98
2022-11-24T13:11:24.178Z,8.35
2022-11-24T13:14:01.740Z,9.02
2022-11-24T13:16:41.015Z,9.07
2022-11-24T13:19:20.381Z,10.15
2022-11-24T13:21:56.904Z,8.82
2022-11-24T13:24:26.173Z,8.98
2022-11-24T13:26:55.275Z,9.07
2022-11-24T13:29:25.759Z,8.95
2022-11-24T13:31:53.086Z,8.32
2022-11-24T13:34:38.989Z,9.00
2022-11-24T13:37:31.592Z,9.07
2022-11-24T13:40:03.267Z,8.52
2022-11-24T13:42:42.235Z,8.43
2022-11-24T13:45:31.328Z,8.20
2022-11-24T13:47:58.734Z,7.82
2022-11-24T13:50:46.411Z,7.95
2022-11-24T13:53:17.622Z,8.85
2022-11-24T13:55:55.892Z,7.40
2022-11-24T13:58:25.915Z,8.85
2022-11-24T14:01:03.934Z,9.00
2022-11-24T14:03:34.587Z,8.27
2022-11-24T14:06:02.986Z,8.32
2022-11-24T14:08:38.985Z,8.43
2022-11-24T14:11:13.226Z,8.45
2022-11-24T14:13:40.524Z,8.93
2022-11-24T14:16:07.849Z,9.00
2022-11-24T14:18:36.107Z,9.10
2022-11-24T14:21:21.566Z,9.32
2022-11-24T14:23:53.147Z,9.00
2022-11-24T14:29:20.653Z,8.90
2022-11-24T14:31:54.235Z,9.40
2022-11-24T14:34:22.591Z,8.02
2022-11-24T14:36:50.316Z,8.02
2022-11-24T14:39:23.124Z,8.73
2022-11-24T14:41:52.514Z,9.77
2022-11-24T14:44:24.525Z,12.02
2022-11-24T14:46:52.286Z,12.02
2022-11-24T14:49:23.895Z,12.30
2022-11-24T14:51:55.196Z,12.07
2022-11-24T14:54:23.551Z,11.73
2022-11-24T14:57:06.034Z,11.45
2022-11-24T14:59:38.220Z,10.40
2022-11-24T15:02:25.460Z,9.90
2022-11-24T15:05:06.518Z,10.57
2022-11-24T15:07:36.675Z,11.02
2022-11-24T15:10:05.185Z,9.75
2022-11-24T15:12:39.969Z,8.48
2022-11-24T15:15:21.919Z,9.05
2022-11-24T15:17:50.493Z,9.40
2022-11-24T15:20:27.120Z,9.75
2022-11-24T15:23:14.607Z,10.10
2022-11-24T15:25:41.865Z,9.57
2022-11-24T15:28:09.385Z,9.55
2022-11-24T15:30:37.388Z,10.27
2022-11-24T15:33:11.760Z,14.13
2022-11-24T15:35:39.043Z,14.95
2022-11-24T15:38:06.324Z,17.85
2022-11-24T15:40:33.749Z,16.17
2022-11-24T15:43:06.275Z,17.27
2022-11-24T15:45:34.893Z,16.95
2022-11-24T15:48:02.188Z,13.25
2022-11-24T15:50:29.938Z,11.90
2022-11-24T15:52:57.978Z,10.27
2022-11-24T15:55:25.253Z,10.50
2022-11-24T15:57:52.505Z,10.70
2022-11-24T16:00:21.308Z,10.63
2022-11-24T16:02:48.953Z,10.73
2022-11-24T16:05:17.068Z,10.43
2022-11-24T16:07:44.681Z,10.52
2022-11-24T16:10:29.198Z,11.02
2022-11-24T16:12:56.466Z,10.98
2022-11-24T16:15:23.915Z,11.73
2022-11-24T16:17:51.317Z,11.32
2022-11-24T16:20:18.680Z,10.32
2022-11-24T16:22:46.104Z,9.68
2022-11-24T16:25:14.112Z,9.50
2022-11-24T16:27:41.338Z,9.65
2022-11-24T16:30:08.957Z,10.82
2022-11-24T16:32:36.335Z,10.40
2022-11-24T16:35:04.141Z,10.60
2022-11-24T16:37:32.178Z,9.63
2022-11-24T16:40:02.594Z,9.70
2022-11-24T16:42:30.789Z,10.68
2022-11-24T16:44:58.077Z,10.98
2022-11-24T16:47:25.626Z,10.52
2022-11-24T16:49:52.907Z,10.15
2022-11-24T16:52:20.216Z,10.52
2022-11-24T16:54:47.797Z,11.15
2022-11-24T16:57:15.793Z,10.35
2022-11-24T16:59:43.635Z,10.55
2022-11-24T17:02:12.905Z,10.00
2022-11-24T17:04:40.310Z,10.65
2022-11-24T17:07:08.000Z,10.60
2022-11-24T17:09:40.365Z,10.35
2022-11-24T17:12:08.233Z,10.98
2022-11-24T17:14:35.624Z,11.68
2022-11-24T17:17:04.095Z,10.85
2022-11-24T17:19:31.964Z,11.93
2022-11-24T17:21:59.551Z,11.00
2022-11-24T17:24:27.016Z,11.68
2022-11-24T17:26:54.237Z,11.50
2022-11-24T17:29:21.572Z,12.15
2022-11-24T17:31:49.199Z,11.63
2022-11-24T17:34:16.554Z,11.75
2022-11-24T17:36:46.060Z,10.57
2022-11-24T17:39:13.662Z,11.55
2022-11-24T17:41:40.997Z,10.52
2022-11-24T17:44:10.091Z,10.88
2022-11-24T17:46:37.674Z,11.15
2022-11-24T17:49:06.710Z,11.95
2022-11-24T17:51:33.968Z,11.82
2022-11-24T17:54:06.029Z,11.00
2022-11-24T17:56:48.324Z,11.13
2022-11-24T17:59:15.557Z,10.10
2022-11-24T18:01:42.929Z,11.45
2022-11-24T18:04:10.255Z,10.95
2022-11-24T18:06:38.613Z,11.80
2022-11-24T18:09:06.210Z,12.15
2022-11-24T18:11:33.543Z,11.23
2022-11-24T18:14:02.391Z,11.77
2022-11-24T18:16:31.262Z,11.95
2022-11-24T18:19:08.773Z,11.52
2022-11-24T18:21:46.620Z,11.80
2022-11-24T18:24:17.530Z,11.55
2022-11-24T18:26:48.316Z,11.40
2022-11-24T18:29:15.571Z,11.52
2022-11-24T18:31:42.865Z,11.10
2022-11-24T18:34:10.248Z,11.93
2022-11-24T18:36:37.564Z,11.35
2022-11-24T18:39:05.893Z,10.35
2022-11-24T18:41:33.300Z,9.75
2022-11-24T18:44:03.147Z,10.02
2022-11-24T18:46:30.602Z,9.35
2022-11-24T18:48:57.955Z,9.55
2022-11-24T18:51:25.378Z,10.27
2022-11-24T18:54:00.134Z,10.45
2022-11-24T18:56:27.764Z,10.02
2022-11-24T18:58:55.715Z,10.45
2022-11-24T19:01:27.082Z,10.02
2022-11-24T19:03:55.568Z,9.20
2022-11-24T19:06:24.525Z,10.00
2022-11-24T19:08:53.684Z,10.35
2022-11-24T19:11:22.877Z,10.63
2022-11-24T19:13:50.529Z,10.85
2022-11-24T19:16:18.730Z,10.65
2022-11-24T19:18:51.887Z,11.73
2022-11-24T19:21:21.259Z,10.80
2022-11-24T19:23:48.524Z,11.23
2022-11-24T19:26:16.031Z,11.25
2022-11-24T19:28:43.329Z,11.27
2022-11-24T19:31:12.615Z,10.73
2022-11-24T19:33:40.235Z,10.35
2022-11-24T19:36:08.848Z,10.70
2022-11-24T19:38:36.509Z,9.77
2022-11-24T19:41:05.221Z,9.85
2022-11-24T19:43:32.726Z,10.10
2022-11-24T19:46:03.796Z,9.25
2022-11-24T19:48:32.400Z,9.65
2022-11-24T19:51:00.701Z,9.40
2022-11-24T19:53:28.127Z,10.43
2022-11-24T19:55:55.441Z,9.18
2022-11-24T19:58:22.819Z,9.32
2022-11-24T20:00:50.207Z,8.80
2022-11-24T20:03:17.485Z,9.60
2022-11-24T20:05:44.756Z,9.32
2022-11-24T20:08:12.035Z,9.32
2022-11-24T20:10:42.513Z,8.63
2022-11-24T20:13:09.754Z,9.57
2022-11-24T20:15:37.041Z,10.35
2022-11-24T20:18:04.309Z,9.55
2022-11-24T20:20:32.710Z,9.32
2022-11-24T20:22:59.952Z,8.73
2022-11-24T20:25:27.207Z,8.77
2022-11-24T20:27:55.938Z,8.57
2022-11-24T20:30:23.235Z,8.00
2022-11-24T20:32:50.458Z,9.00
2022-11-24T20:35:18.525Z,8.15
2022-11-24T20:37:45.817Z,8.95
2022-11-24T20:40:15.264Z,8.70
2022-11-24T20:42:42.498Z,8.85
2022-11-24T20:45:09.788Z,9.75
2022-11-24T20:47:37.082Z,8.70
2022-11-24T20:50:04.501Z,9.65
2022-11-24T20:52:32.085Z,7.82
2022-11-24T20:55:03.710Z,8.25
2022-11-24T20:57:30.965Z,8.98
2022-11-24T20:59:58.464Z,8.18
2022-11-24T21:02:26.584Z,7.65
2022-11-24T21:04:53.844Z,7.35
2022-11-24T21:07:21.131Z,8.30
2022-11-24T21:09:48.529Z,8.05
2022-11-24T21:12:15.841Z,8.98
2022-11-24T21:14:43.202Z,7.40
2022-11-24T21:17:10.688Z,8.45
2022-11-24T21:19:37.927Z,8.77
2022-11-24T21:22:05.225Z,8.57
2022-11-24T21:24:32.777Z,8.02
2022-11-24T21:27:00.170Z,7.63
2022-11-24T21:29:27.784Z,7.30
2022-11-24T21:31:55.112Z,8.68
2022-11-24T21:34:22.444Z,8.32
2022-11-24T21:36:49.730Z,7.68
2022-11-24T21:39:17.201Z,8.23
2022-11-24T21:41:44.681Z,7.88
2022-11-24T21:44:13.504Z,8.27
2022-11-24T21:46:46.999Z,8.25
2022-11-24T21:49:16.752Z,7.63
2022-11-24T21:51:44.033Z,8.45
2022-11-24T21:54:11.316Z,7.85
2022-11-24T21:56:38.588Z,8.10
2022-11-24T21:59:05.819Z,8.40
2022-11-24T22:01:33.194Z,7.97
2022-11-24T22:04:00.468Z,8.13
2022-11-24T22:06:27.791Z,8.40
2022-11-24T22:08:56.033Z,8.38
2022-11-24T22:11:24.535Z,7.68
2022-11-24T22:13:52.122Z,7.63
2022-11-24T22:16:20.650Z,7.97
2022-11-24T22:18:48.207Z,7.63
2022-11-24T22:21:16.883Z,8.30
2022-11-24T22:23:44.417Z,8.35
2022-11-24T22:26:11.637Z,8.00
2022-11-24T22:28:39.420Z,8.32
2022-11-24T22:31:10.342Z,7.57
2022-11-24T22:36:05.201Z,7.07
2022-11-24T22:38:33.024Z,7.40
2022-11-24T22:41:03.951Z,7.65
2022-11-24T22:45:59.174Z,6.57
2022-11-24T22:48:28.066Z,8.05
2022-11-24T22:50:55.329Z,7.40
2022-11-24T22:53:22.609Z,7.20
2022-11-24T22:55:49.839Z,7.78
2022-11-24T22:58:17.052Z,8.25
2022-11-24T23:00:44.328Z,7.30
2022-11-24T23:03:11.732Z,8.05
2022-11-24T23:05:39.069Z,8.10
2022-11-24T23:08:06.305Z,8.00
2022-11-24T23:10:33.568Z,7.93
2022-11-24T23:13:00.818Z,8.77
2022-11-24T23:15:28.071Z,8.05
2022-11-24T23:17:55.329Z,7.53
2022-11-24T23:20:22.892Z,8.45
2022-11-24T23:22:51.407Z,7.60
2022-11-24T23:25:18.713Z,7.35
2022-11-24T23:27:45.938Z,7.75
2022-11-24T23:30:13.193Z,7.10
2022-11-24T23:32:40.433Z,8.13
2022-11-24T23:35:13.479Z,7.25
2022-11-24T23:38:05.980Z,7.50
2022-11-24T23:40:29.236Z,7.72
2022-11-24T23:42:56.491Z,7.68
2022-11-24T23:45:23.760Z,7.15
2022-11-24T23:47:51.019Z,6.68
2022-11-24T23:50:18.300Z,7.95
2022-11-24T23:52:45.584Z,7.93
2022-11-24T23:55:13.037Z,7.63
2022-11-24T23:57:40.288Z,7.43
